createdAt,value
2017-07-08T00:01:33.142Z,21.43
2017-07-08T00:04:00.543Z,21.17
2017-07-08T00:06:27.938Z,21.67
2017-07-08T00:08:55.353Z,21.13
2017-07-08T00:11:22.757Z,21.67
2017-07-08T00:13:50.164Z,19.13
2017-07-08T00:16:17.560Z,20.40
2017-07-08T00:18:44.973Z,18.70
2017-07-08T00:21:12.375Z,19.70
2017-07-08T00:23:39.788Z,18.93
2017-07-08T00:26:07.192Z,17.73
2017-07-08T00:28:34.603Z,17.50
2017-07-08T00:31:02.031Z,17.43
2017-07-08T00:33:29.675Z,17.23
2017-07-08T00:35:57.092Z,16.90
2017-07-08T00:38:24.501Z,18.73
2017-07-08T00:40:51.903Z,17.10
2017-07-08T00:43:19.304Z,16.80
2017-07-08T00:45:46.699Z,18.33
2017-07-08T00:48:14.419Z,19.80
2017-07-08T00:50:41.835Z,16.70
2017-07-08T00:53:09.245Z,20.73
2017-07-08T00:55:36.652Z,21.37
2017-07-08T00:58:04.052Z,22.20
2017-07-08T01:00:31.460Z,20.67
2017-07-08T01:02:58.862Z,20.33
2017-07-08T01:05:26.259Z,19.50
2017-07-08T01:07:53.667Z,20.00
2017-07-08T01:10:21.068Z,19.50
2017-07-08T01:12:48.472Z,20.70
2017-07-08T01:15:15.876Z,21.93
2017-07-08T01:17:43.589Z,21.90
2017-07-08T01:20:10.987Z,21.73
2017-07-08T01:22:38.382Z,20.07
2017-07-08T01:25:05.785Z,19.93
2017-07-08T01:27:33.197Z,19.57
2017-07-08T01:30:00.609Z,19.93
2017-07-08T01:32:28.000Z,19.57
2017-07-08T01:34:55.617Z,19.50
2017-07-08T01:37:23.011Z,19.87
2017-07-08T01:39:50.411Z,21.50
2017-07-08T01:42:17.808Z,20.67
2017-07-08T01:44:45.508Z,18.27
2017-07-08T01:47:12.907Z,22.80
2017-07-08T01:49:40.317Z,22.40
2017-07-08T01:52:07.716Z,22.67
2017-07-08T01:54:35.120Z,21.77
2017-07-08T01:57:02.548Z,22.07
2017-07-08T01:59:29.951Z,24.73
2017-07-08T02:01:57.388Z,24.47
2017-07-08T02:04:24.791Z,24.07
2017-07-08T02:06:52.189Z,22.93
2017-07-08T02:09:19.600Z,23.20
2017-07-08T02:11:47.006Z,22.97
2017-07-08T02:14:14.407Z,24.53
2017-07-08T02:16:41.803Z,22.80
2017-07-08T02:19:09.216Z,25.97
2017-07-08T02:21:36.609Z,25.73
2017-07-08T02:24:04.044Z,25.10
2017-07-08T02:26:31.436Z,24.60
2017-07-08T02:28:58.855Z,23.87
2017-07-08T02:31:26.258Z,24.00
2017-07-08T02:33:53.655Z,25.43
2017-07-08T02:36:21.060Z,24.10
2017-07-08T02:38:48.460Z,24.07
2017-07-08T02:41:15.865Z,23.80
2017-07-08T02:43:43.263Z,25.57
2017-07-08T02:46:10.663Z,26.57
2017-07-08T02:48:38.070Z,23.33
2017-07-08T02:51:05.474Z,25.13
2017-07-08T02:53:32.871Z,23.47
2017-07-08T02:56:00.283Z,23.33
2017-07-08T02:58:27.695Z,26.07
2017-07-08T03:00:55.327Z,25.20
2017-07-08T03:03:22.723Z,27.90
2017-07-08T03:05:50.139Z,25.83
2017-07-08T03:08:17.542Z,27.23
2017-07-08T03:10:44.939Z,26.43
2017-07-08T03:13:12.338Z,30.13
2017-07-08T03:15:39.747Z,29.03
2017-07-08T03:18:07.145Z,26.27
2017-07-08T03:20:34.547Z,27.47
2017-07-08T03:23:01.949Z,30.47
2017-07-08T03:25:29.347Z,33.00
2017-07-08T03:27:56.752Z,29.67
2017-07-08T03:30:24.159Z,37.80
2017-07-08T03:32:51.555Z,34.80
2017-07-08T03:35:18.955Z,36.00
2017-07-08T03:37:46.355Z,33.67
2017-07-08T03:40:13.764Z,38.33
2017-07-08T03:42:41.159Z,38.77
2017-07-08T03:45:08.828Z,39.13
2017-07-08T03:47:36.227Z,40.30
2017-07-08T03:50:03.622Z,42.40
2017-07-08T03:52:31.046Z,35.23
2017-07-08T03:54:58.439Z,39.43
2017-07-08T03:57:25.854Z,40.20
2017-07-08T03:59:53.252Z,37.50
2017-07-08T04:02:20.663Z,42.60
2017-07-08T04:04:48.061Z,39.23
2017-07-08T04:07:15.464Z,34.30
2017-07-08T04:09:42.875Z,39.30
2017-07-08T04:12:10.276Z,41.40
2017-07-08T04:14:37.682Z,37.70
2017-07-08T04:17:05.092Z,37.03
2017-07-08T04:19:32.493Z,40.27
2017-07-08T04:21:59.899Z,38.13
2017-07-08T04:24:27.307Z,34.73
2017-07-08T04:26:54.713Z,36.37
2017-07-08T04:29:22.119Z,39.03
2017-07-08T04:31:49.527Z,42.40
2017-07-08T04:34:16.929Z,40.03
2017-07-08T04:36:44.364Z,39.07
2017-07-08T04:39:11.759Z,37.77
2017-07-08T04:41:39.176Z,39.33
2017-07-08T04:44:06.636Z,32.70
2017-07-08T04:46:33.983Z,36.00
2017-07-08T04:49:01.383Z,36.90
2017-07-08T04:51:28.787Z,37.20
2017-07-08T04:53:56.191Z,36.03
2017-07-08T04:56:23.611Z,43.83
2017-07-08T04:58:51.005Z,36.97
2017-07-08T05:01:18.411Z,45.23
2017-07-08T05:03:45.815Z,41.97
2017-07-08T05:06:13.219Z,36.53
2017-07-08T05:08:40.630Z,44.17
2017-07-08T05:11:08.032Z,42.77
2017-07-08T05:13:35.440Z,46.40
2017-07-08T05:16:02.845Z,48.73
2017-07-08T05:18:30.252Z,50.47
2017-07-08T05:20:57.651Z,53.90
2017-07-08T05:23:25.059Z,46.70
2017-07-08T05:25:52.460Z,48.23
2017-07-08T05:28:19.868Z,46.90
2017-07-08T05:30:47.271Z,50.50
2017-07-08T05:33:14.675Z,49.50
2017-07-08T05:35:42.079Z,46.60
2017-07-08T05:38:09.479Z,49.57
2017-07-08T05:40:36.875Z,44.00
2017-07-08T05:43:04.291Z,52.67
2017-07-08T05:45:31.720Z,48.77
2017-07-08T05:47:59.095Z,52.47
2017-07-08T05:50:26.495Z,44.60
2017-07-08T05:52:53.935Z,45.50
2017-07-08T05:55:21.334Z,50.20
2017-07-08T05:57:48.745Z,48.07
2017-07-08T06:00:16.139Z,49.13
2017-07-08T06:02:43.572Z,52.10
2017-07-08T06:05:10.967Z,52.80
2017-07-08T06:07:38.371Z,54.03
2017-07-08T06:10:05.771Z,46.33
2017-07-08T06:12:33.174Z,47.00
2017-07-08T06:15:00.575Z,44.70
2017-07-08T06:17:27.980Z,49.73
2017-07-08T06:19:55.391Z,49.37
2017-07-08T06:22:22.787Z,44.57
2017-07-08T06:24:50.242Z,47.00
2017-07-08T06:27:17.589Z,47.80
2017-07-08T06:32:43.167Z,45.30
2017-07-08T06:35:10.572Z,45.63
2017-07-08T06:37:42.997Z,44.90
2017-07-08T06:40:10.398Z,41.83
2017-07-08T06:42:37.800Z,47.10
2017-07-08T06:45:05.207Z,41.43
2017-07-08T06:47:32.607Z,44.33
2017-07-08T06:50:00.795Z,45.80
2017-07-08T06:52:28.228Z,44.23
2017-07-08T06:54:55.707Z,43.80
2017-07-08T06:57:23.104Z,43.47
2017-07-08T06:59:50.511Z,45.70
2017-07-08T07:02:17.907Z,45.80
2017-07-08T07:04:45.312Z,43.73
2017-07-08T07:07:12.855Z,44.23
2017-07-08T07:09:40.274Z,45.90
2017-07-08T07:12:08.025Z,43.73
2017-07-08T07:14:35.709Z,44.00
2017-07-08T07:17:03.108Z,45.77
2017-07-08T07:19:30.516Z,42.00
2017-07-08T07:21:57.916Z,38.60
2017-07-08T07:24:25.328Z,46.33
2017-07-08T07:26:52.737Z,44.13
2017-07-08T07:29:20.145Z,45.60
2017-07-08T07:31:47.546Z,43.37
2017-07-08T07:34:14.951Z,39.07
2017-07-08T07:36:42.351Z,39.33
2017-07-08T07:39:09.775Z,38.23
2017-07-08T07:41:37.171Z,37.60
2017-07-08T07:44:04.593Z,37.30
2017-07-08T07:46:31.991Z,38.57
2017-07-08T07:48:59.603Z,35.90
2017-07-08T07:51:27.006Z,34.83
2017-07-08T07:53:54.399Z,34.43
2017-07-08T07:56:21.799Z,30.73
2017-07-08T07:58:49.200Z,29.90
2017-07-08T08:01:16.607Z,29.07
2017-07-08T08:06:17.941Z,29.23
2017-07-08T08:08:45.336Z,27.20
2017-07-08T08:11:12.739Z,26.53
2017-07-08T08:13:40.136Z,25.83
2017-07-08T08:16:07.539Z,22.13
2017-07-08T08:18:34.935Z,21.00
2017-07-08T08:21:02.348Z,23.40
2017-07-08T08:23:29.746Z,21.07
2017-07-08T08:25:57.144Z,20.30
2017-07-08T08:28:24.559Z,17.27
2017-07-08T08:30:51.973Z,18.90
2017-07-08T08:33:19.372Z,18.00
2017-07-08T08:35:46.776Z,16.77
2017-07-08T08:38:14.619Z,15.67
2017-07-08T08:40:42.509Z,17.97
2017-07-08T08:43:10.354Z,16.50
2017-07-08T08:45:38.151Z,15.83
2017-07-08T08:48:06.036Z,15.63
2017-07-08T08:50:33.732Z,13.90
2017-07-08T08:53:01.135Z,14.90
2017-07-08T08:55:28.553Z,13.40
2017-07-08T08:57:55.939Z,11.33
2017-07-08T09:00:23.371Z,11.40
2017-07-08T09:02:50.766Z,13.00
2017-07-08T09:05:18.182Z,12.30
2017-07-08T09:07:45.594Z,13.03
2017-07-08T09:10:12.987Z,11.00
2017-07-08T09:12:40.395Z,8.27
2017-07-08T09:15:07.791Z,8.30
2017-07-08T09:17:35.191Z,8.27
2017-07-08T09:20:02.588Z,7.47
2017-07-08T09:22:29.982Z,6.20
2017-07-08T09:24:57.379Z,6.37
2017-07-08T09:27:24.778Z,5.00
2017-07-08T09:29:52.176Z,5.40
2017-07-08T09:32:19.578Z,5.10
2017-07-08T09:34:51.135Z,6.60
2017-07-08T09:37:18.527Z,5.87
2017-07-08T09:39:45.915Z,4.77
2017-07-08T09:42:13.523Z,3.93
2017-07-08T09:44:40.941Z,5.90
2017-07-08T09:47:08.556Z,4.17
2017-07-08T09:49:35.958Z,5.07
2017-07-08T09:52:03.354Z,6.43
2017-07-08T09:54:30.782Z,6.50
2017-07-08T09:56:58.192Z,4.47
2017-07-08T09:59:25.651Z,4.43
2017-07-08T10:01:53.056Z,5.53
2017-07-08T10:04:20.452Z,5.10
2017-07-08T10:06:47.844Z,5.53
2017-07-08T10:09:15.239Z,5.30
2017-07-08T10:11:42.631Z,4.37
2017-07-08T10:14:10.028Z,5.90
2017-07-08T10:16:37.423Z,6.10
2017-07-08T10:19:04.823Z,6.83
2017-07-08T10:21:32.211Z,5.30
2017-07-08T10:23:59.829Z,5.30
2017-07-08T10:26:27.220Z,5.00
2017-07-08T10:28:54.615Z,4.83
2017-07-08T10:31:22.010Z,4.77
2017-07-08T10:33:49.421Z,4.90
2017-07-08T10:36:16.816Z,5.30
2017-07-08T10:38:44.220Z,4.40
2017-07-08T10:41:11.820Z,4.20
2017-07-08T10:43:39.219Z,5.50
2017-07-08T10:46:06.607Z,5.43
2017-07-08T10:48:34.008Z,4.57
2017-07-08T10:51:01.403Z,4.57
2017-07-08T10:53:28.803Z,4.83
2017-07-08T10:55:56.195Z,5.60
2017-07-08T10:58:23.592Z,6.23
2017-07-08T11:00:50.978Z,5.73
2017-07-08T11:03:18.687Z,6.10
2017-07-08T11:05:46.095Z,7.30
2017-07-08T11:08:13.496Z,5.60
2017-07-08T11:10:40.895Z,6.27
2017-07-08T11:13:08.292Z,5.23
2017-07-08T11:15:35.685Z,5.83
2017-07-08T11:18:03.083Z,5.73
2017-07-08T11:20:30.481Z,5.30
2017-07-08T11:22:57.870Z,4.40
2017-07-08T11:25:25.272Z,4.23
2017-07-08T11:27:52.668Z,4.27
2017-07-08T11:30:20.063Z,4.00
2017-07-08T11:32:47.759Z,4.00
2017-07-08T11:35:15.159Z,3.57
2017-07-08T11:37:42.551Z,3.63
2017-07-08T11:40:09.955Z,3.40
2017-07-08T11:42:37.339Z,3.60
2017-07-08T11:45:04.850Z,3.47
2017-07-08T11:47:32.231Z,3.63
2017-07-08T11:50:01.069Z,3.50
2017-07-08T11:52:28.465Z,4.07
2017-07-08T11:54:55.853Z,3.37
2017-07-08T11:57:23.247Z,2.80
2017-07-08T11:59:50.645Z,3.77
2017-07-08T12:02:18.039Z,2.97
2017-07-08T12:04:45.449Z,3.13
2017-07-08T12:07:12.844Z,4.10
2017-07-08T12:09:40.239Z,3.90
2017-07-08T12:12:07.630Z,3.30
2017-07-08T12:14:35.039Z,3.50
2017-07-08T12:17:02.432Z,3.20
2017-07-08T12:19:29.828Z,3.20
2017-07-08T12:21:57.229Z,3.87
2017-07-08T12:24:24.646Z,3.40
2017-07-08T12:26:52.040Z,3.57
2017-07-08T12:29:19.428Z,3.80
2017-07-08T12:31:46.850Z,4.80
2017-07-08T12:34:14.231Z,5.50
2017-07-08T12:36:41.631Z,6.53
2017-07-08T12:39:09.018Z,6.47
2017-07-08T12:41:36.435Z,7.37
2017-07-08T12:44:03.834Z,7.93
2017-07-08T12:46:31.232Z,7.27
2017-07-08T12:48:58.632Z,8.40
2017-07-08T12:51:26.039Z,8.10
2017-07-08T12:53:53.433Z,9.40
2017-07-08T12:56:20.832Z,8.70
2017-07-08T12:58:48.222Z,9.73
2017-07-08T13:01:15.630Z,8.20
2017-07-08T13:03:43.016Z,8.20
2017-07-08T13:06:10.463Z,7.97
2017-07-08T13:08:38.072Z,7.30
2017-07-08T13:11:05.464Z,7.63
2017-07-08T13:13:33.649Z,7.83
2017-07-08T13:16:01.285Z,8.40
2017-07-08T13:18:28.687Z,9.17
2017-07-08T13:20:56.101Z,9.37
2017-07-08T13:23:23.502Z,9.73
2017-07-08T13:25:50.901Z,8.23
2017-07-08T13:28:18.292Z,9.20
2017-07-08T13:30:45.699Z,10.00
2017-07-08T13:33:13.104Z,10.40
2017-07-08T13:35:40.512Z,10.40
2017-07-08T13:38:07.911Z,10.90
2017-07-08T13:40:35.335Z,13.27
2017-07-08T13:43:02.738Z,12.37
2017-07-08T13:45:30.154Z,13.63
2017-07-08T13:47:57.559Z,12.90
2017-07-08T13:50:24.980Z,14.27
2017-07-08T13:52:52.392Z,13.00
2017-07-08T13:55:19.788Z,10.27
2017-07-08T13:57:47.196Z,10.60
2017-07-08T14:00:14.583Z,8.40
2017-07-08T14:02:41.993Z,9.50
2017-07-08T14:05:09.385Z,8.90
2017-07-08T14:07:36.792Z,8.13
2017-07-08T14:10:04.198Z,11.33
2017-07-08T14:12:31.600Z,9.03
2017-07-08T14:14:59.014Z,7.00
2017-07-08T14:17:26.409Z,6.30
2017-07-08T14:19:53.809Z,5.20
2017-07-08T14:22:21.203Z,3.37
2017-07-08T14:24:48.624Z,3.87
2017-07-08T14:27:16.016Z,4.00
2017-07-08T14:29:43.707Z,4.33
2017-07-08T14:32:11.101Z,3.60
2017-07-08T14:34:38.500Z,3.17
2017-07-08T14:37:05.892Z,4.40
2017-07-08T14:39:33.535Z,4.43
2017-07-08T14:42:00.927Z,4.60
2017-07-08T14:44:28.317Z,4.67
2017-07-08T14:46:55.740Z,4.40
2017-07-08T14:49:23.125Z,4.63
2017-07-08T14:51:50.520Z,4.33
2017-07-08T14:54:17.916Z,4.80
2017-07-08T14:56:45.314Z,4.80
2017-07-08T14:59:12.710Z,4.60
2017-07-08T15:01:40.107Z,5.00
2017-07-08T15:04:07.558Z,4.33
2017-07-08T15:06:34.947Z,5.23
2017-07-08T15:09:02.344Z,4.87
2017-07-08T15:11:29.745Z,5.20
2017-07-08T15:16:31.059Z,4.90
2017-07-08T15:18:58.455Z,6.80
2017-07-08T15:21:25.843Z,4.63
2017-07-08T15:23:53.245Z,4.97
2017-07-08T15:26:20.632Z,4.40
2017-07-08T15:28:48.033Z,3.57
2017-07-08T15:31:15.427Z,3.83
2017-07-08T15:33:43.044Z,4.80
2017-07-08T15:36:10.664Z,4.73
2017-07-08T15:38:38.060Z,3.63
2017-07-08T15:41:05.452Z,4.43
2017-07-08T15:43:32.856Z,4.60
2017-07-08T15:46:00.246Z,4.00
2017-07-08T15:48:27.658Z,4.10
2017-07-08T15:50:55.042Z,4.53
2017-07-08T15:53:22.452Z,4.57
2017-07-08T15:55:49.828Z,3.63
2017-07-08T15:58:17.237Z,3.73
2017-07-08T16:00:44.623Z,4.00
2017-07-08T16:03:12.015Z,3.80
2017-07-08T16:05:39.412Z,4.07
2017-07-08T16:08:06.804Z,3.50
2017-07-08T16:10:34.200Z,3.40
2017-07-08T16:13:01.632Z,3.20
2017-07-08T16:15:29.027Z,3.80
2017-07-08T16:17:56.415Z,3.27
2017-07-08T16:20:23.815Z,3.37
2017-07-08T16:22:51.203Z,3.40
2017-07-08T16:25:18.602Z,4.67
2017-07-08T16:27:45.992Z,4.10
2017-07-08T16:30:13.391Z,3.70
2017-07-08T16:32:40.784Z,3.30
2017-07-08T16:35:08.176Z,4.50
2017-07-08T16:37:35.582Z,4.47
2017-07-08T16:40:02.973Z,4.13
2017-07-08T16:42:30.359Z,4.03
2017-07-08T16:44:57.976Z,4.40
2017-07-08T16:47:25.362Z,4.13
2017-07-08T16:49:52.768Z,4.23
2017-07-08T16:52:20.171Z,4.67
2017-07-08T16:54:47.566Z,4.60
2017-07-08T16:57:14.955Z,4.43
2017-07-08T16:59:42.347Z,4.40
2017-07-08T17:02:10.004Z,5.17
2017-07-08T17:04:37.402Z,4.30
2017-07-08T17:07:04.803Z,4.80
2017-07-08T17:09:32.204Z,5.10
2017-07-08T17:11:59.599Z,5.10
2017-07-08T17:14:26.995Z,4.87
2017-07-08T17:16:54.387Z,4.53
2017-07-08T17:19:21.784Z,4.20
2017-07-08T17:21:49.177Z,4.70
2017-07-08T17:24:16.572Z,4.70
2017-07-08T17:26:43.959Z,4.60
2017-07-08T17:29:11.353Z,4.50
2017-07-08T17:31:38.764Z,5.37
2017-07-08T17:34:06.351Z,4.67
2017-07-08T17:36:33.747Z,4.50
2017-07-08T17:39:01.168Z,4.70
2017-07-08T17:41:28.547Z,4.67
2017-07-08T17:43:55.936Z,4.10
2017-07-08T17:46:23.331Z,3.93
2017-07-08T17:48:50.964Z,4.97
2017-07-08T17:51:18.352Z,4.20
2017-07-08T17:53:45.743Z,4.73
2017-07-08T17:56:13.432Z,3.90
2017-07-08T17:58:40.829Z,5.07
2017-07-08T18:01:08.222Z,3.80
2017-07-08T18:03:35.605Z,4.83
2017-07-08T18:06:02.995Z,4.40
2017-07-08T18:08:30.385Z,4.47
2017-07-08T18:10:57.783Z,3.43
2017-07-08T18:13:25.173Z,4.30
2017-07-08T18:15:52.564Z,3.93
2017-07-08T18:18:19.955Z,3.77
2017-07-08T18:20:47.352Z,4.30
2017-07-08T18:23:14.747Z,4.10
2017-07-08T18:25:42.144Z,3.83
2017-07-08T18:28:09.540Z,3.40
2017-07-08T18:30:36.936Z,3.47
2017-07-08T18:33:04.363Z,3.67
2017-07-08T18:35:31.763Z,3.70
2017-07-08T18:37:59.152Z,3.40
2017-07-08T18:40:26.560Z,3.20
2017-07-08T18:42:53.955Z,3.33
2017-07-08T18:45:21.348Z,3.83
2017-07-08T18:47:48.747Z,3.40
2017-07-08T18:50:16.136Z,3.67
2017-07-08T18:52:43.527Z,3.67
2017-07-08T18:55:10.916Z,3.47
2017-07-08T18:57:38.327Z,3.13
2017-07-08T19:00:05.804Z,3.27
2017-07-08T19:02:33.186Z,3.20
2017-07-08T19:05:00.587Z,2.43
2017-07-08T19:07:27.988Z,3.30
2017-07-08T19:09:55.384Z,2.33
2017-07-08T19:12:22.786Z,2.90
2017-07-08T19:14:50.180Z,3.17
2017-07-08T19:17:17.579Z,3.20
2017-07-08T19:19:44.968Z,2.20
2017-07-08T19:22:12.363Z,3.00
2017-07-08T19:24:39.856Z,2.93
2017-07-08T19:27:07.247Z,3.20
2017-07-08T19:29:34.641Z,3.30
2017-07-08T19:32:02.036Z,3.10
2017-07-08T19:34:29.425Z,3.00
2017-07-08T19:36:56.823Z,3.33
2017-07-08T19:39:24.216Z,3.10
2017-07-08T19:41:51.615Z,3.10
2017-07-08T19:44:19.009Z,2.90
2017-07-08T19:46:46.556Z,3.20
2017-07-08T19:49:13.927Z,3.27
2017-07-08T19:51:41.325Z,2.80
2017-07-08T19:54:09.740Z,3.20
2017-07-08T19:56:37.119Z,2.90
2017-07-08T19:59:04.523Z,3.10
2017-07-08T20:01:31.914Z,3.20
2017-07-08T20:03:59.361Z,2.93
2017-07-08T20:06:26.995Z,3.30
2017-07-08T20:08:54.403Z,3.10
2017-07-08T20:11:21.799Z,3.20
2017-07-08T20:13:49.173Z,2.80
2017-07-08T20:16:16.564Z,2.63
2017-07-08T20:18:43.965Z,2.70
2017-07-08T20:21:11.367Z,2.70
2017-07-08T20:23:38.763Z,3.23
2017-07-08T20:26:06.440Z,3.53
2017-07-08T20:28:33.839Z,2.80
2017-07-08T20:31:01.232Z,2.97
2017-07-08T20:33:28.632Z,2.80
2017-07-08T20:35:56.020Z,2.63
2017-07-08T20:38:23.412Z,2.60
2017-07-08T20:40:50.807Z,3.10
2017-07-08T20:43:18.204Z,2.67
2017-07-08T20:45:45.592Z,2.83
2017-07-08T20:48:12.987Z,2.40
2017-07-08T20:50:40.391Z,2.93
2017-07-08T20:53:07.786Z,2.73
2017-07-08T20:55:35.199Z,2.47
2017-07-08T20:58:02.613Z,2.80
2017-07-08T21:00:30.004Z,2.63
2017-07-08T21:02:57.400Z,2.33
2017-07-08T21:05:25.031Z,2.23
2017-07-08T21:07:52.415Z,2.40
2017-07-08T21:10:19.817Z,2.33
2017-07-08T21:12:47.223Z,2.53
2017-07-08T21:15:14.661Z,2.23
2017-07-08T21:17:42.037Z,2.70
2017-07-08T21:20:09.437Z,2.23
2017-07-08T21:22:36.835Z,2.20
2017-07-08T21:25:04.234Z,2.90
2017-07-08T21:27:31.628Z,2.70
2017-07-08T21:29:59.286Z,2.67
2017-07-08T21:32:26.675Z,2.53
2017-07-08T21:34:54.082Z,2.60
2017-07-08T21:37:21.473Z,2.80
2017-07-08T21:39:48.858Z,2.00
2017-07-08T21:42:16.257Z,2.53
2017-07-08T21:44:43.651Z,2.33
2017-07-08T21:47:11.047Z,2.30
2017-07-08T21:49:38.454Z,2.33
2017-07-08T21:52:06.090Z,2.80
2017-07-08T21:54:33.486Z,2.40
2017-07-08T21:57:00.875Z,2.77
2017-07-08T21:59:28.280Z,2.50
2017-07-08T22:01:55.669Z,2.47
2017-07-08T22:04:23.075Z,2.53
2017-07-08T22:06:50.468Z,2.00
2017-07-08T22:09:17.863Z,2.60
2017-07-08T22:11:45.252Z,2.57
2017-07-08T22:14:12.651Z,2.20
2017-07-08T22:16:40.056Z,2.30
2017-07-08T22:19:07.447Z,2.63
2017-07-08T22:21:34.836Z,3.60
2017-07-08T22:24:02.223Z,2.00
2017-07-08T22:26:29.623Z,2.80
2017-07-08T22:28:57.011Z,2.53
2017-07-08T22:31:24.676Z,1.73
2017-07-08T22:33:52.063Z,1.83
2017-07-08T22:36:19.460Z,2.40
2017-07-08T22:38:46.853Z,2.13
2017-07-08T22:41:14.254Z,2.50
2017-07-08T22:43:41.639Z,2.50
2017-07-08T22:46:09.045Z,2.33
2017-07-08T22:48:36.428Z,2.90
2017-07-08T22:51:03.831Z,2.57
2017-07-08T22:53:31.221Z,3.07
2017-07-08T22:55:58.624Z,2.40
2017-07-08T22:58:26.016Z,2.47
2017-07-08T23:00:53.425Z,2.27
2017-07-08T23:03:20.815Z,2.20
2017-07-08T23:05:48.225Z,2.40
2017-07-08T23:08:15.611Z,2.50
2017-07-08T23:10:43.014Z,3.17
2017-07-08T23:13:10.427Z,2.00
2017-07-08T23:15:37.834Z,2.40
2017-07-08T23:18:05.222Z,2.27
2017-07-08T23:20:32.619Z,2.47
2017-07-08T23:23:00.010Z,2.57
2017-07-08T23:25:27.404Z,2.73
2017-07-08T23:27:54.803Z,2.70
2017-07-08T23:30:22.195Z,2.70
2017-07-08T23:32:49.855Z,3.33
2017-07-08T23:35:17.253Z,2.97
2017-07-08T23:37:44.650Z,3.00
2017-07-08T23:40:12.043Z,3.20
2017-07-08T23:42:39.492Z,2.57
2017-07-08T23:45:06.872Z,2.63
2017-07-08T23:47:34.267Z,2.73
2017-07-08T23:50:01.664Z,2.40
2017-07-08T23:52:29.060Z,3.30
2017-07-08T23:54:56.456Z,3.63
2017-07-08T23:57:23.850Z,3.53
2017-07-08T23:59:51.243Z,2.80
